Time;durP1;ratioP1;P1;durP2;ratioP2;P2;SDS_P1;SDS_P2;PMS_P1;PMS_P2;Temp;Humidity;BMP_temperature;BMP_pressure;BME280_temperature;BME280_humidity;BME280_pressure;Samples;Min_cycle;Max_cycle;Signal;HPM_P1;HPM_P2
2022/05/22 00:02:09;;;;;;;17.67;6.60;;;11.50;99.90;;;;;;5068916;28;20044;-68
2022/05/22 00:04:36;;;;;;;16.30;6.35;;;11.50;99.90;;;;;;5075453;28;20040;-68
2022/05/22 00:07:02;;;;;;;16.60;6.55;;;11.40;99.90;;;;;;5071723;28;20036;-68
2022/05/22 00:09:28;;;;;;;18.33;6.13;;;11.40;99.90;;;;;;5070252;28;20102;-68
2022/05/22 00:11:55;;;;;;;12.82;6.32;;;11.40;99.90;;;;;;5070400;28;20036;-68
2022/05/22 00:14:21;;;;;;;22.25;6.45;;;11.40;99.90;;;;;;5070527;28;20040;-68
2022/05/22 00:16:47;;;;;;;12.50;6.60;;;11.40;99.90;;;;;;5068450;28;20049;-68
2022/05/22 00:19:16;;;;;;;17.45;6.25;;;11.40;99.90;;;;;;5070970;28;20044;-68
2022/05/22 00:21:43;;;;;;;19.33;6.60;;;11.40;99.90;;;;;;5070017;28;20135;-68
2022/05/22 00:24:11;;;;;;;11.20;6.60;;;11.30;99.90;;;;;;5069358;28;20036;-68
2022/05/22 00:26:37;;;;;;;18.35;6.78;;;11.30;99.90;;;;;;5067055;28;20040;-68
2022/05/22 00:29:03;;;;;;;16.63;6.70;;;11.20;99.90;;;;;;5070599;28;20032;-68
2022/05/22 00:31:28;;;;;;;20.42;7.13;;;11.20;99.90;;;;;;5068254;28;20037;-68
2022/05/22 00:33:54;;;;;;;16.02;6.15;;;11.10;99.90;;;;;;5070281;28;20044;-68
2022/05/22 00:36:20;;;;;;;15.77;6.78;;;11.20;99.90;;;;;;5067738;28;20473;-69
2022/05/22 00:38:45;;;;;;;16.95;6.53;;;11.20;99.90;;;;;;5060198;28;20417;-68
2022/05/22 00:41:12;;;;;;;13.75;6.55;;;11.20;99.90;;;;;;5070097;28;20458;-68
2022/05/22 00:43:41;;;;;;;17.20;6.80;;;11.10;99.90;;;;;;5070179;28;20068;-68
2022/05/22 00:46:11;;;;;;;15.80;6.68;;;11.00;99.90;;;;;;5068532;28;20040;-68
2022/05/22 00:48:39;;;;;;;14.98;6.90;;;11.00;99.90;;;;;;5070063;28;20070;-69
2022/05/22 00:51:17;;;;;;;17.88;7.00;;;10.90;99.90;;;;;;5069625;28;20041;-69
2022/05/22 00:53:49;;;;;;;16.15;7.13;;;11.90;99.90;;;;;;5069929;28;20087;-68
2022/05/22 00:56:20;;;;;;;15.20;6.72;;;10.90;99.90;;;;;;5069399;28;20033;-68
2022/05/22 00:58:49;;;;;;;17.00;7.15;;;10.80;99.90;;;;;;5069843;28;20051;-69
2022/05/22 01:01:15;;;;;;;14.90;7.20;;;10.90;99.90;;;;;;5067530;28;20051;-68
2022/05/22 01:03:41;;;;;;;15.50;7.72;;;10.80;99.90;;;;;;5069826;28;20052;-68
2022/05/22 01:06:09;;;;;;;15.25;7.07;;;10.80;99.90;;;;;;5066510;28;20051;-68
2022/05/22 01:08:39;;;;;;;21.00;8.23;;;10.80;99.90;;;;;;5070012;28;20106;-68
2022/05/22 01:11:13;;;;;;;16.55;7.47;;;10.80;99.90;;;;;;5071965;28;20474;-68
2022/05/22 01:13:43;;;;;;;18.15;7.40;;;10.70;99.90;;;;;;5071589;28;20132;-68
2022/05/22 01:16:08;;;;;;;22.15;7.90;;;10.80;99.90;;;;;;5062383;28;20456;-68
2022/05/22 01:18:50;;;;;;;15.82;7.40;;;10.70;99.90;;;;;;5068125;28;20155;-68
2022/05/22 01:21:22;;;;;;;21.45;7.15;;;10.70;99.90;;;;;;5068427;28;20051;-68
2022/05/22 01:23:48;;;;;;;17.70;7.53;;;10.70;99.90;;;;;;5069757;28;20116;-68
2022/05/22 01:26:14;;;;;;;18.77;7.63;;;10.70;99.90;;;;;;5065589;28;20087;-69
2022/05/22 01:28:40;;;;;;;14.65;7.18;;;10.70;99.90;;;;;;5045898;28;20044;-67
2022/05/22 01:31:06;;;;;;;18.23;7.22;;;10.70;99.90;;;;;;5064959;28;20044;-68
2022/05/22 01:33:34;;;;;;;17.45;7.35;;;10.70;99.90;;;;;;5067298;28;20048;-68
2022/05/22 01:36:00;;;;;;;14.98;6.82;;;10.70;99.90;;;;;;5068224;28;20052;-68
2022/05/22 01:38:26;;;;;;;17.23;6.82;;;11.40;99.90;;;;;;5068928;28;20044;-68
2022/05/22 01:40:52;;;;;;;21.08;6.93;;;10.70;99.90;;;;;;5068866;28;20124;-67
2022/05/22 01:43:18;;;;;;;14.77;6.28;;;10.70;99.90;;;;;;5067565;28;20044;-68
2022/05/22 01:45:45;;;;;;;18.02;7.00;;;10.70;99.90;;;;;;5069474;28;20446;-68
2022/05/22 01:48:11;;;;;;;13.70;6.63;;;10.70;99.90;;;;;;5066472;28;20370;-68
2022/05/22 01:50:38;;;;;;;15.20;6.43;;;10.70;99.90;;;;;;5069469;28;20052;-68
2022/05/22 01:53:05;;;;;;;14.27;6.28;;;10.70;99.90;;;;;;5068454;28;20040;-68
2022/05/22 01:55:30;;;;;;;15.02;6.90;;;10.70;99.90;;;;;;5068317;28;20058;-68
2022/05/22 01:57:56;;;;;;;14.98;6.18;;;10.40;99.90;;;;;;5069130;28;20053;-68
2022/05/22 02:00:24;;;;;;;18.73;7.55;;;10.70;99.90;;;;;;5068869;28;20445;-68
2022/05/22 02:02:50;;;;;;;18.00;6.50;;;10.60;99.90;;;;;;5067014;28;20053;-68
2022/05/22 02:05:19;;;;;;;16.50;6.35;;;10.70;99.90;;;;;;5068286;28;20047;-67
2022/05/22 02:10:31;;;;;;;16.02;6.60;;;10.70;99.90;;;;;;5068663;28;20392;-68
2022/05/22 02:12:57;;;;;;;17.45;6.85;;;10.70;99.90;;;;;;5067665;28;20166;-68
2022/05/22 02:15:23;;;;;;;19.17;7.03;;;10.60;99.90;;;;;;5067698;28;20097;-68
2022/05/22 02:17:49;;;;;;;15.68;6.47;;;11.90;99.90;;;;;;5067178;28;20056;-68
2022/05/22 02:20:16;;;;;;;14.25;6.07;;;10.60;99.90;;;;;;5068226;28;20070;-68
2022/05/22 02:22:45;;;;;;;15.50;7.05;;;10.60;99.90;;;;;;5067706;28;20048;-68
2022/05/22 02:25:13;;;;;;;16.10;6.50;;;11.30;99.90;;;;;;5084055;28;20063;-68
2022/05/22 02:27:39;;;;;;;14.68;6.93;;;10.50;99.90;;;;;;5068283;28;20040;-68
2022/05/22 02:30:08;;;;;;;13.63;7.38;;;10.50;99.90;;;;;;5069509;28;20047;-68
2022/05/22 02:32:36;;;;;;;15.40;7.18;;;10.40;99.90;;;;;;5067648;28;20040;-68
2022/05/22 02:35:07;;;;;;;18.75;7.57;;;10.80;99.90;;;;;;5070007;28;20410;-67
2022/05/22 02:37:44;;;;;;;17.92;7.32;;;10.40;99.90;;;;;;5067364;28;20098;-67
2022/05/22 02:40:10;;;;;;;16.27;8.23;;;10.50;99.90;;;;;;5068664;28;20048;-68
2022/05/22 02:42:48;;;;;;;19.80;7.32;;;10.40;99.90;;;;;;5067901;28;20120;-68
2022/05/22 02:45:17;;;;;;;16.88;8.18;;;10.40;99.90;;;;;;5070005;28;20099;-67
2022/05/22 02:47:43;;;;;;;17.67;7.78;;;10.30;99.90;;;;;;5065449;28;20123;-68
2022/05/22 02:50:10;;;;;;;18.85;7.68;;;10.40;99.90;;;;;;5068545;28;20103;-68
2022/05/22 02:52:36;;;;;;;18.52;7.93;;;10.20;99.90;;;;;;5067181;28;20039;-68
2022/05/22 02:55:02;;;;;;;17.90;7.95;;;10.30;99.90;;;;;;5067975;28;20396;-68
2022/05/22 02:57:28;;;;;;;19.90;7.57;;;10.20;99.90;;;;;;5059738;28;20156;-67
2022/05/22 02:59:55;;;;;;;15.13;7.82;;;10.20;99.90;;;;;;5050191;28;20389;-67
2022/05/22 03:02:21;;;;;;;16.48;8.30;;;10.20;99.90;;;;;;5065941;28;20370;-68
2022/05/22 03:04:48;;;;;;;20.02;8.70;;;10.20;99.90;;;;;;5069478;28;20059;-67
2022/05/22 03:07:15;;;;;;;16.15;7.93;;;10.20;99.90;;;;;;5065870;28;20071;-67
2022/05/22 03:09:43;;;;;;;15.25;7.68;;;10.20;99.90;;;;;;5068057;28;20063;-68
2022/05/22 03:12:20;;;;;;;15.80;8.20;;;10.10;99.90;;;;;;5067143;28;20404;-68
2022/05/22 03:14:56;;;;;;;17.60;8.32;;;10.10;99.90;;;;;;5068498;28;20378;-68
2022/05/22 03:17:23;;;;;;;18.13;7.82;;;10.00;99.90;;;;;;5066269;28;20046;-68
2022/05/22 03:19:48;;;;;;;18.90;8.77;;;10.00;99.90;;;;;;5066600;28;20040;-68
2022/05/22 03:22:14;;;;;;;17.92;8.30;;;10.00;99.90;;;;;;5065710;28;20401;-68
2022/05/22 03:24:40;;;;;;;15.35;8.30;;;10.00;99.90;;;;;;5070639;28;20185;-68
2022/05/22 03:27:12;;;;;;;18.75;8.55;;;10.00;99.90;;;;;;5071181;28;20051;-68
2022/05/22 03:29:39;;;;;;;18.00;8.88;;;10.00;99.90;;;;;;5067413;28;20412;-68
2022/05/22 03:32:05;;;;;;;18.42;8.20;;;10.00;99.90;;;;;;5060543;28;20064;-68
2022/05/22 03:34:31;;;;;;;13.65;7.60;;;10.00;99.90;;;;;;5071191;28;20044;-68
2022/05/22 03:36:59;;;;;;;18.40;8.35;;;10.10;99.90;;;;;;5070190;28;20079;-68
2022/05/22 03:39:25;;;;;;;19.58;7.88;;;10.10;99.90;;;;;;5071060;28;20048;-68
2022/05/22 03:41:50;;;;;;;18.00;8.07;;;10.10;99.90;;;;;;5069472;28;20036;-68
2022/05/22 03:44:16;;;;;;;21.08;7.50;;;10.10;99.90;;;;;;5071825;28;20130;-68
2022/05/22 03:46:42;;;;;;;18.10;7.75;;;10.10;99.90;;;;;;5067852;28;20052;-68
2022/05/22 03:49:08;;;;;;;17.55;8.18;;;10.10;99.90;;;;;;5053788;28;20063;-69
2022/05/22 03:51:34;;;;;;;17.15;7.78;;;10.10;99.90;;;;;;5067944;28;20056;-68
2022/05/22 03:54:00;;;;;;;18.40;8.18;;;10.10;99.90;;;;;;5069369;28;20131;-68
2022/05/22 03:56:26;;;;;;;17.77;7.63;;;10.90;99.90;;;;;;5068780;28;20072;-68
2022/05/22 03:58:52;;;;;;;15.10;6.72;;;10.10;99.90;;;;;;5071543;28;20083;-68
2022/05/22 04:01:18;;;;;;;19.35;7.30;;;10.10;99.90;;;;;;5069040;28;20485;-69
2022/05/22 04:03:43;;;;;;;17.58;7.30;;;10.20;99.90;;;;;;5070853;28;20075;-68
2022/05/22 04:06:11;;;;;;;18.60;7.88;;;10.20;99.90;;;;;;5068377;28;20492;-71
2022/05/22 04:08:37;;;;;;;17.55;7.63;;;10.20;99.90;;;;;;5070100;28;20044;-68
2022/05/22 04:11:08;;;;;;;16.98;7.60;;;10.20;99.90;;;;;;5070704;28;20350;-69
2022/05/22 04:13:34;;;;;;;16.92;7.65;;;10.30;99.90;;;;;;5070545;28;20491;-68
2022/05/22 04:16:00;;;;;;;18.02;7.22;;;10.30;99.90;;;;;;5068435;28;20037;-68
2022/05/22 04:18:25;;;;;;;15.63;7.53;;;10.30;99.90;;;;;;5068667;28;20362;-68
2022/05/22 04:20:51;;;;;;;15.88;7.22;;;10.30;99.90;;;;;;5061454;28;20120;-68
2022/05/22 04:26:00;;;;;;;17.33;6.70;;;10.40;99.90;;;;;;5070650;28;20052;-69
2022/05/22 04:28:28;;;;;;;14.80;7.15;;;10.40;99.90;;;;;;5069518;28;20495;-69
2022/05/22 04:30:54;;;;;;;17.10;7.15;;;10.40;99.90;;;;;;5068881;28;20049;-68
2022/05/22 04:33:19;;;;;;;20.45;6.78;;;10.50;99.90;;;;;;5069657;28;20166;-69
2022/05/22 04:35:47;;;;;;;19.02;7.38;;;10.50;99.90;;;;;;5071958;28;20082;-68
2022/05/22 04:38:13;;;;;;;20.50;6.72;;;10.60;99.90;;;;;;5070042;28;20032;-69
2022/05/22 04:40:39;;;;;;;15.93;6.80;;;10.60;99.90;;;;;;5070773;28;20385;-69
2022/05/22 04:43:05;;;;;;;16.98;6.72;;;10.70;99.90;;;;;;5072218;28;20042;-69
2022/05/22 04:45:32;;;;;;;19.77;6.78;;;10.70;99.90;;;;;;5068438;28;20045;-69
2022/05/22 04:47:58;;;;;;;17.98;6.85;;;10.80;99.90;;;;;;5068931;28;20037;-69
2022/05/22 04:50:24;;;;;;;16.33;6.80;;;10.80;99.90;;;;;;5068659;28;20059;-69
2022/05/22 04:52:50;;;;;;;19.98;7.03;;;10.90;99.90;;;;;;5072042;28;20051;-69
2022/05/22 04:55:16;;;;;;;15.40;6.63;;;10.90;99.90;;;;;;5062201;28;20401;-69
2022/05/22 04:57:43;;;;;;;21.42;6.22;;;11.00;99.90;;;;;;5069046;28;20045;-69
2022/05/22 05:00:10;;;;;;;17.15;6.70;;;11.00;99.90;;;;;;5070488;28;20084;-69
2022/05/22 05:02:37;;;;;;;16.15;7.00;;;11.00;99.90;;;;;;5068105;28;20048;-69
2022/05/22 05:05:10;;;;;;;15.23;5.70;;;11.00;99.90;;;;;;5069404;28;20127;-69
2022/05/22 05:07:40;;;;;;;25.30;6.88;;;11.00;99.90;;;;;;5067866;28;20045;-69
2022/05/22 05:10:08;;;;;;;20.38;6.85;;;11.00;99.90;;;;;;5069986;28;20452;-68
2022/05/22 05:12:36;;;;;;;14.95;6.07;;;11.10;99.90;;;;;;5057946;28;20059;-67
2022/05/22 05:15:03;;;;;;;18.35;5.85;;;11.20;99.90;;;;;;5054227;28;20434;-68
2022/05/22 05:17:29;;;;;;;20.38;7.05;;;11.20;99.90;;;;;;5068425;28;20044;-68
2022/05/22 05:19:54;;;;;;;15.93;6.00;;;11.20;99.90;;;;;;5069698;28;20349;-68
2022/05/22 05:22:20;;;;;;;16.58;6.72;;;11.30;99.90;;;;;;5069366;28;20043;-68
2022/05/22 05:24:45;;;;;;;18.77;6.05;;;12.30;99.90;;;;;;5069624;28;20040;-69
2022/05/22 05:27:11;;;;;;;19.08;6.72;;;11.40;99.90;;;;;;5068882;28;20048;-68
2022/05/22 05:29:36;;;;;;;18.65;7.15;;;11.50;99.90;;;;;;5069636;28;20518;-68
2022/05/22 05:32:02;;;;;;;20.45;6.32;;;11.50;99.90;;;;;;5066669;28;20090;-67
2022/05/22 05:34:28;;;;;;;19.17;6.30;;;11.50;99.90;;;;;;5068590;28;20044;-68
2022/05/22 05:36:54;;;;;;;21.50;6.15;;;11.60;99.90;;;;;;5067699;28;20048;-68
2022/05/22 05:39:20;;;;;;;15.85;6.60;;;11.60;99.90;;;;;;5068981;28;20063;-68
2022/05/22 05:41:46;;;;;;;21.55;6.93;;;11.00;99.90;;;;;;5068307;28;20044;-68
2022/05/22 05:44:11;;;;;;;15.50;6.95;;;11.60;99.90;;;;;;5057473;28;20041;-68
2022/05/22 05:46:38;;;;;;;18.17;6.88;;;11.60;99.90;;;;;;5064017;28;20045;-68
2022/05/22 05:49:05;;;;;;;22.15;7.68;;;11.70;99.90;;;;;;5054022;28;20037;-68
2022/05/22 05:51:31;;;;;;;20.25;7.47;;;11.80;99.90;;;;;;5069120;28;20059;-68
2022/05/22 05:53:58;;;;;;;24.15;8.35;;;11.90;99.90;;;;;;5068916;28;20265;-68
2022/05/22 05:56:24;;;;;;;24.27;9.48;;;12.00;99.90;;;;;;5066851;28;20105;-68
2022/05/22 05:58:50;;;;;;;21.65;8.55;;;12.60;99.90;;;;;;5068927;28;20052;-68
2022/05/22 06:01:17;;;;;;;19.98;8.73;;;12.10;99.90;;;;;;5066612;28;20429;-68
2022/05/22 06:03:44;;;;;;;24.35;8.45;;;12.50;99.90;;;;;;5052935;28;20370;-68
2022/05/22 06:06:12;;;;;;;23.88;9.18;;;12.20;99.90;;;;;;5068198;28;20064;-68
2022/05/22 06:08:38;;;;;;;19.13;8.50;;;12.20;99.90;;;;;;5067461;28;20094;-68
2022/05/22 06:11:04;;;;;;;19.00;8.38;;;12.30;99.90;;;;;;5068850;28;20086;-68
2022/05/22 06:13:30;;;;;;;22.23;9.25;;;12.30;99.90;;;;;;5068773;28;20052;-68
2022/05/22 06:15:56;;;;;;;21.65;8.57;;;12.40;99.90;;;;;;5061604;28;20081;-68
2022/05/22 06:18:22;;;;;;;29.48;8.90;;;12.40;99.90;;;;;;5037818;28;20087;-68
2022/05/22 06:20:47;;;;;;;26.02;9.18;;;12.40;99.90;;;;;;5049296;28;20409;-67
2022/05/22 06:23:13;;;;;;;19.95;8.52;;;12.50;99.90;;;;;;5062859;28;20045;-69
2022/05/22 06:25:44;;;;;;;19.98;8.48;;;13.70;99.90;;;;;;5067174;28;20048;-68
2022/05/22 06:28:14;;;;;;;18.52;8.80;;;12.60;99.90;;;;;;5067656;28;20051;-68
2022/05/22 06:30:40;;;;;;;25.65;9.25;;;12.60;99.90;;;;;;5068015;28;20569;-68
2022/05/22 06:33:08;;;;;;;20.98;9.13;;;12.70;99.90;;;;;;5057083;28;20115;-68
2022/05/22 06:35:34;;;;;;;22.10;8.40;;;12.70;99.90;;;;;;5055977;28;20040;-68
2022/05/22 06:38:00;;;;;;;19.23;8.35;;;12.80;99.90;;;;;;5068011;28;20389;-68
2022/05/22 06:40:26;;;;;;;19.92;7.70;;;12.90;99.90;;;;;;5067992;28;20386;-68
2022/05/22 06:42:52;;;;;;;23.30;8.07;;;13.50;99.90;;;;;;5067738;28;20055;-68
2022/05/22 06:45:22;;;;;;;20.00;7.93;;;13.00;99.90;;;;;;5065871;28;20401;-68
2022/05/22 06:47:49;;;;;;;17.70;7.85;;;13.30;99.90;;;;;;5067204;28;20048;-68
2022/05/22 06:50:17;;;;;;;20.33;7.63;;;13.30;99.90;;;;;;5067159;28;20040;-69
2022/05/22 06:52:43;;;;;;;21.25;7.25;;;13.20;99.90;;;;;;5068286;28;20037;-68
2022/05/22 06:55:10;;;;;;;17.20;5.13;;;13.40;99.90;;;;;;5067409;28;20101;-68
2022/05/22 06:57:38;;;;;;;17.30;6.63;;;13.40;99.90;;;;;;5066406;28;20052;-69
2022/05/22 07:00:07;;;;;;;16.63;6.18;;;13.40;99.90;;;;;;5066231;28;20060;-69
2022/05/22 07:02:36;;;;;;;18.75;6.82;;;13.50;99.90;;;;;;5066536;28;20314;-68
2022/05/22 07:05:03;;;;;;;18.75;6.25;;;13.60;99.90;;;;;;5067244;28;20401;-68
2022/05/22 07:07:28;;;;;;;17.73;6.53;;;13.60;99.90;;;;;;5064646;28;20040;-68
2022/05/22 07:09:55;;;;;;;14.10;5.13;;;13.70;99.90;;;;;;5068265;28;20035;-68
2022/05/22 07:12:21;;;;;;;16.05;5.65;;;13.70;99.90;;;;;;5065776;28;20404;-67
2022/05/22 07:14:50;;;;;;;15.02;5.68;;;13.20;99.90;;;;;;5067290;28;20064;-68
2022/05/22 07:17:21;;;;;;;15.38;6.03;;;14.20;99.90;;;;;;5047595;28;20048;-67
2022/05/22 07:19:47;;;;;;;17.10;5.00;;;14.00;99.90;;;;;;5067933;28;20059;-68
2022/05/22 07:22:13;;;;;;;13.25;4.10;;;14.00;99.90;;;;;;5048771;28;20032;-68
2022/05/22 07:24:38;;;;;;;7.32;3.20;;;14.10;99.90;;;;;;5065708;28;20350;-67
2022/05/22 07:27:04;;;;;;;10.75;4.22;;;14.20;99.90;;;;;;5066470;28;20075;-68
2022/05/22 07:29:30;;;;;;;11.43;4.28;;;14.30;99.90;;;;;;5067648;28;20051;-67
2022/05/22 07:31:57;;;;;;;13.68;4.60;;;14.50;99.90;;;;;;5065761;28;20540;-67
2022/05/22 07:34:26;;;;;;;9.85;4.13;;;14.40;99.90;;;;;;5067227;28;20048;-67
2022/05/22 07:36:57;;;;;;;9.93;3.90;;;14.50;99.90;;;;;;5067826;28;20464;-67
2022/05/22 07:39:23;;;;;;;16.35;4.90;;;14.60;99.90;;;;;;5066247;28;20477;-67
2022/05/22 07:41:48;;;;;;;14.50;4.32;;;14.70;99.90;;;;;;5067985;28;20452;-67
2022/05/22 07:44:14;;;;;;;12.00;4.30;;;14.80;99.90;;;;;;5063635;28;20090;-67
2022/05/22 07:46:39;;;;;;;14.10;3.92;;;15.00;99.90;;;;;;5066191;28;20084;-67
2022/05/22 07:49:05;;;;;;;11.77;3.60;;;15.10;99.90;;;;;;5068157;28;20040;-67
2022/05/22 07:51:30;;;;;;;12.52;3.70;;;15.20;99.90;;;;;;5066383;28;20154;-67
2022/05/22 07:53:56;;;;;;;11.25;3.33;;;15.40;99.90;;;;;;5066759;28;20400;-67
2022/05/22 07:56:22;;;;;;;11.32;3.05;;;15.60;99.90;;;;;;5066396;28;20140;-67
2022/05/22 07:58:51;;;;;;;12.52;4.03;;;15.50;99.90;;;;;;5067146;28;20061;-67
2022/05/22 08:01:18;;;;;;;12.05;3.58;;;15.60;99.90;;;;;;5066015;28;20128;-67
2022/05/22 08:03:44;;;;;;;13.02;3.72;;;15.80;99.90;;;;;;5066568;28;20083;-67
2022/05/22 08:06:11;;;;;;;11.30;3.50;;;15.90;99.90;;;;;;5049753;28;20056;-67
2022/05/22 08:08:37;;;;;;;9.48;2.97;;;16.00;99.90;;;;;;5056052;28;20512;-67
2022/05/22 08:11:03;;;;;;;10.00;3.20;;;17.00;99.90;;;;;;5069211;28;20044;-67
2022/05/22 08:13:29;;;;;;;7.18;2.60;;;16.40;99.90;;;;;;5068656;28;20147;-67
2022/05/22 08:15:54;;;;;;;9.93;2.58;;;16.50;99.90;;;;;;5070026;28;20097;-67
2022/05/22 08:18:20;;;;;;;10.30;3.10;;;16.60;99.90;;;;;;5069438;28;20033;-67
2022/05/22 08:20:49;;;;;;;9.35;2.90;;;17.30;99.90;;;;;;5070115;28;20249;-68
2022/05/22 08:23:19;;;;;;;10.05;2.50;;;16.60;99.90;;;;;;5055357;28;20119;-68
2022/05/22 08:25:45;;;;;;;8.93;2.45;;;16.70;99.90;;;;;;5049967;28;20052;-67
2022/05/22 08:28:11;;;;;;;10.27;2.65;;;16.80;99.90;;;;;;5049704;28;20493;-67
2022/05/22 08:30:37;;;;;;;11.48;3.05;;;16.90;99.90;;;;;;5050193;28;20123;-67
2022/05/22 08:33:03;;;;;;;10.93;3.00;;;16.90;99.90;;;;;;5066419;28;20044;-67
2022/05/22 08:35:32;;;;;;;8.77;2.75;;;17.00;99.90;;;;;;5069728;28;20055;-67
2022/05/22 08:37:59;;;;;;;10.65;2.50;;;17.20;99.90;;;;;;5070670;28;20043;-67
2022/05/22 08:40:28;;;;;;;10.82;3.00;;;17.30;99.90;;;;;;5069330;28;20098;-67
2022/05/22 08:43:11;;;;;;;9.23;2.92;;;17.50;99.90;;;;;;5070172;28;20045;-67
2022/05/22 08:45:47;;;;;;;9.05;2.42;;;17.60;99.90;;;;;;5068427;28;20050;-67
2022/05/22 08:48:38;;;;;;;7.20;2.97;;;17.70;99.90;;;;;;5066786;28;20044;-68
2022/05/22 08:51:14;;;;;;;9.23;2.78;;;17.80;99.90;;;;;;5068796;28;20044;-68
2022/05/22 08:53:53;;;;;;;8.40;2.67;;;18.00;99.90;;;;;;5068021;28;20044;-68
2022/05/22 08:59:21;;;;;;;7.13;2.45;;;18.40;99.90;;;;;;5049230;28;20450;-68
2022/05/22 09:02:24;;;;;;;6.90;2.30;;;18.40;99.90;;;;;;5048842;28;20056;-68
2022/05/22 09:04:58;;;;;;;8.55;2.40;;;18.50;99.90;;;;;;5043355;28;20354;-68
2022/05/22 09:07:38;;;;;;;8.93;2.30;;;18.40;99.90;;;;;;5068462;28;20496;-68
2022/05/22 09:10:13;;;;;;;8.48;2.50;;;18.60;99.90;;;;;;5069327;28;20128;-68
2022/05/22 09:13:12;;;;;;;7.68;2.30;;;18.80;99.90;;;;;;5069588;28;20504;-68
2022/05/22 09:15:55;;;;;;;9.60;2.30;;;18.90;99.90;;;;;;5065897;28;20115;-69
2022/05/22 09:18:35;;;;;;;8.10;2.30;;;19.00;99.90;;;;;;5062997;28;20136;-69
2022/05/22 09:21:03;;;;;;;10.55;2.63;;;19.10;99.90;;;;;;5069036;28;20083;-69
2022/05/22 09:24:22;;;;;;;8.57;2.53;;;19.10;99.90;;;;;;5067759;28;20044;-68
2022/05/22 09:27:03;;;;;;;7.20;2.17;;;19.30;99.90;;;;;;5013669;28;20121;-68
2022/05/22 09:29:44;;;;;;;7.05;2.28;;;19.40;99.90;;;;;;5033561;28;20124;-69
2022/05/22 09:32:12;;;;;;;7.18;2.30;;;19.50;99.90;;;;;;5049329;28;20052;-68
2022/05/22 09:34:52;;;;;;;7.40;2.40;;;19.60;99.90;;;;;;5067208;28;20346;-69
2022/05/22 09:37:38;;;;;;;8.45;2.28;;;19.90;99.90;;;;;;5066212;28;20062;-69
2022/05/22 09:40:04;;;;;;;7.75;2.22;;;20.00;99.90;;;;;;5050263;28;20044;-69
2022/05/22 09:42:32;;;;;;;5.93;2.15;;;20.60;99.90;;;;;;5067052;28;20067;-69
2022/05/22 09:45:18;;;;;;;7.63;2.10;;;20.20;99.90;;;;;;5065154;28;20045;-69
2022/05/22 09:48:09;;;;;;;7.75;2.03;;;20.40;99.90;;;;;;5063923;28;20124;-69
2022/05/22 09:50:56;;;;;;;6.75;2.10;;;20.70;99.90;;;;;;5067675;28;20120;-69
2022/05/22 09:53:27;;;;;;;5.82;1.83;;;20.80;99.90;;;;;;5068400;28;20873;-69
2022/05/22 09:56:18;;;;;;;7.25;2.10;;;21.70;99.90;;;;;;5049146;28;20045;-69
2022/05/22 09:59:21;;;;;;;7.20;2.00;;;20.90;99.90;;;;;;5048060;28;20358;-68
2022/05/22 10:01:52;;;;;;;7.03;2.15;;;20.90;99.90;;;;;;5045930;28;20128;-68
2022/05/22 10:04:36;;;;;;;8.55;2.30;;;20.80;99.90;;;;;;5063298;28;20071;-68
2022/05/22 10:07:20;;;;;;;8.25;2.20;;;20.70;99.90;;;;;;5053914;28;20079;-68
2022/05/22 10:10:24;;;;;;;6.55;2.05;;;20.80;99.90;;;;;;5067619;28;20419;-68
2022/05/22 10:12:55;;;;;;;6.07;2.17;;;21.20;99.90;;;;;;5063885;28;20147;-68
2022/05/22 10:15:43;;;;;;;7.75;2.10;;;21.50;99.90;;;;;;5068280;28;20044;-68
2022/05/22 10:18:24;;;;;;;5.60;1.88;;;21.60;99.90;;;;;;5066571;28;20076;-67
2022/05/22 10:21:18;;;;;;;8.07;2.15;;;21.90;99.90;;;;;;5066847;28;20052;-68
2022/05/22 10:24:09;;;;;;;5.70;1.98;;;22.20;98.40;;;;;;5067349;28;20052;-68
2022/05/22 10:27:12;;;;;;;6.35;1.90;;;22.30;98.10;;;;;;5065535;28;20599;-68
2022/05/22 10:29:59;;;;;;;7.93;1.90;;;22.60;98.40;;;;;;5067515;28;20375;-68
2022/05/22 10:32:44;;;;;;;7.88;1.90;;;23.00;98.10;;;;;;5063146;28;20124;-68
2022/05/22 10:35:27;;;;;;;9.32;2.30;;;23.40;97.90;;;;;;5029127;28;20049;-68
2022/05/22 10:38:04;;;;;;;6.20;1.85;;;24.10;96.90;;;;;;5048376;28;20063;-68
2022/05/22 10:43:14;;;;;;;6.40;2.00;;;23.20;97.20;;;;;;5047588;28;20481;-68
2022/05/22 10:45:40;;;;;;;10.10;2.08;;;23.20;97.30;;;;;;5048331;28;20060;-68
2022/05/22 10:48:11;;;;;;;6.60;1.90;;;23.20;96.40;;;;;;5044886;28;20041;-68
2022/05/22 10:50:38;;;;;;;7.00;1.83;;;23.10;96.60;;;;;;5048027;28;20435;-68
2022/05/22 10:53:39;;;;;;;7.82;2.00;;;23.10;96.30;;;;;;5047799;28;20457;-68
2022/05/22 10:56:12;;;;;;;6.40;1.90;;;24.00;97.20;;;;;;5045684;28;20159;-69
2022/05/22 10:58:40;;;;;;;5.75;1.90;;;27.30;94.60;;;;;;5048371;28;20053;-68
2022/05/22 11:01:17;;;;;;;6.65;1.95;;;30.00;90.90;;;;;;5046775;28;20070;-69
2022/05/22 11:03:43;;;;;;;7.85;1.80;;;30.20;86.40;;;;;;5055795;28;20489;-69
2022/05/22 11:06:18;;;;;;;6.90;1.80;;;29.30;83.80;;;;;;5066584;28;20049;-68
2022/05/22 11:08:49;;;;;;;3.78;1.48;;;28.20;84.50;;;;;;5066457;28;20069;-68
2022/05/22 11:11:27;;;;;;;6.43;1.90;;;27.10;85.00;;;;;;5064673;28;20052;-69
2022/05/22 11:14:03;;;;;;;6.18;1.80;;;26.20;85.90;;;;;;5063153;28;20045;-69
2022/05/22 11:16:29;;;;;;;4.65;1.50;;;25.50;86.80;;;;;;5054708;28;20193;-70
2022/05/22 11:19:19;;;;;;;5.80;1.70;;;25.80;87.90;;;;;;5045412;28;20131;-69
2022/05/22 11:22:16;;;;;;;4.40;1.65;;;25.90;87.60;;;;;;5063146;28;20044;-69
2022/05/22 11:24:56;;;;;;;10.60;1.83;;;25.60;86.60;;;;;;5065167;28;20131;-69
2022/05/22 11:27:41;;;;;;;6.90;1.80;;;25.20;86.10;;;;;;5064926;28;20107;-69
2022/05/22 11:30:28;;;;;;;5.45;1.80;;;26.80;89.20;;;;;;5067256;28;20044;-69
2022/05/22 11:33:19;;;;;;;6.65;1.90;;;29.70;86.30;;;;;;5065219;28;20524;-67
2022/05/22 11:35:51;;;;;;;4.72;1.75;;;31.30;79.70;;;;;;5065270;28;20048;-68
2022/05/22 11:38:42;;;;;;;6.85;1.73;;;32.80;74.20;;;;;;5063003;28;20036;-68
2022/05/22 11:41:36;;;;;;;6.72;1.83;;;34.20;71.30;;;;;;5065003;28;20111;-68
2022/05/22 11:44:07;;;;;;;5.28;1.90;;;35.40;70.40;;;;;;5064340;28;20075;-68
2022/05/22 11:46:52;;;;;;;5.57;1.50;;;36.10;65.20;;;;;;5066701;28;20514;-68
2022/05/22 11:49:59;;;;;;;5.22;1.70;;;36.60;61.20;;;;;;5068065;28;20136;-68
2022/05/22 11:52:55;;;;;;;5.65;1.80;;;35.80;59.30;;;;;;5053407;28;20055;-68
2022/05/22 11:55:45;;;;;;;6.25;1.80;;;34.00;59.40;;;;;;5066630;28;20087;-68
2022/05/22 11:58:29;;;;;;;7.57;1.80;;;32.30;59.30;;;;;;5064711;28;20552;-67
2022/05/22 12:01:27;;;;;;;5.38;1.85;;;30.70;60.00;;;;;;5050821;28;20054;-68
2022/05/22 12:03:53;;;;;;;7.32;1.80;;;29.70;60.70;;;;;;5069951;28;20052;-68
2022/05/22 12:06:34;;;;;;;5.07;1.63;;;28.90;62.70;;;;;;5066721;28;20049;-68
2022/05/22 12:09:05;;;;;;;6.07;1.90;;;28.40;63.40;;;;;;5067855;28;20040;-68
2022/05/22 12:11:49;;;;;;;7.75;1.85;;;27.90;64.20;;;;;;5067746;28;20867;-68
2022/05/22 12:14:42;;;;;;;6.55;1.90;;;26.70;64.90;;;;;;5069692;28;20396;-67
2022/05/22 12:17:20;;;;;;;6.13;1.60;;;25.90;65.90;;;;;;5066629;28;20044;-67
2022/05/22 12:19:56;;;;;;;8.98;1.98;;;25.40;68.00;;;;;;5068462;28;20045;-67
2022/05/22 12:23:12;;;;;;;4.50;1.75;;;24.90;69.20;;;;;;5066779;28;20075;-67
2022/05/22 12:25:19;;;;;;;4.95;1.70;;;24.70;70.60;;;;;;5064527;28;20056;-67
2022/05/22 12:27:45;;;;;;;6.35;1.80;;;24.40;71.20;;;;;;5069629;28;20400;-67
2022/05/22 12:30:22;;;;;;;4.28;1.70;;;24.00;71.70;;;;;;5069177;28;20357;-67
2022/05/22 12:32:59;;;;;;;5.30;1.80;;;23.80;72.50;;;;;;5063177;28;20086;-67
2022/05/22 12:35:26;;;;;;;4.05;1.70;;;23.60;73.00;;;;;;5067362;28;20109;-66
2022/05/22 12:38:00;;;;;;;7.63;1.90;;;23.30;73.70;;;;;;5071147;28;20383;-67
2022/05/22 12:40:44;;;;;;;5.65;1.80;;;23.30;73.90;;;;;;5070661;28;20044;-67
2022/05/22 12:43:14;;;;;;;7.25;1.92;;;23.10;75.30;;;;;;5074964;28;20052;-67
2022/05/22 12:45:40;;;;;;;6.53;1.90;;;22.50;76.60;;;;;;5067645;28;20082;-67
2022/05/22 12:48:33;;;;;;;5.10;1.80;;;22.40;78.20;;;;;;5062378;28;20044;-65
2022/05/22 12:51:21;;;;;;;4.40;1.70;;;22.20;81.30;;;;;;5062677;28;20181;-64
2022/05/22 12:53:53;;;;;;;6.00;1.95;;;22.20;83.60;;;;;;5064215;28;20132;-65
2022/05/22 12:56:38;;;;;;;8.32;1.92;;;22.10;85.00;;;;;;5062089;28;20109;-65
2022/05/22 12:59:16;;;;;;;5.93;1.77;;;22.00;86.60;;;;;;5065412;28;20056;-65
2022/05/22 13:01:45;;;;;;;5.85;2.03;;;21.90;87.50;;;;;;5060917;28;20048;-65
2022/05/22 13:04:15;;;;;;;4.10;1.80;;;21.70;89.50;;;;;;5064341;28;20045;-66
2022/05/22 13:07:02;;;;;;;6.28;1.80;;;21.60;90.80;;;;;;5064629;28;20151;-65
2022/05/22 13:09:31;;;;;;;5.93;1.58;;;21.60;91.50;;;;;;5062344;28;20071;-66
2022/05/22 13:12:00;;;;;;;6.22;1.98;;;21.50;91.80;;;;;;5065742;28;20409;-65
2022/05/22 13:14:51;;;;;;;6.32;2.00;;;21.80;92.50;;;;;;5068259;28;20052;-66